Time;durP1;ratioP1;P1;durP2;ratioP2;P2;SDS_P1;SDS_P2;PMS_P1;PMS_P2;Temp;Humidity;BMP_temperature;BMP_pressure;BME280_temperature;BME280_humidity;BME280_pressure;Samples;Min_cycle;Max_cycle;Signal;HPM_P1;HPM_P2
2022/05/01 00:02:20;;;;;;;;;;;;;;;10.52;55.38;101373.03;4932689;28;5459;-92
2022/05/01 00:04:47;;;;;;;;;;;;;;;10.49;55.27;101379.66;4943381;29;1619;-92
2022/05/01 00:07:13;;;;;;;;;;;;;;;10.49;55.36;101379.66;4938650;28;2412;-92
2022/05/01 00:09:39;;;;;;;;;;;;;;;10.49;55.46;101378.81;4936692;29;2910;-93
2022/05/01 00:12:07;;;;;;;;;;;;;;;10.47;55.25;101381.72;4938323;28;2330;-92
2022/05/01 00:14:33;;;;;;;;;;;;;;;10.47;55.26;101379.03;4946041;29;1449;-92
2022/05/01 00:16:59;;;;;;;;;;;;;;;10.45;55.25;101376.53;4931483;29;5034;-94
2022/05/01 00:19:25;;;;;;;;;;;;;;;10.45;55.26;101378.41;4936766;29;1609;-92
2022/05/01 00:21:52;;;;;;;;;;;;;;;10.43;55.44;101378.59;4955517;28;2310;-93
2022/05/01 00:24:18;;;;;;;;;;;;;;;10.44;55.44;101376.72;4925016;29;5248;-92
2022/05/01 00:26:44;;;;;;;;;;;;;;;10.42;55.40;101371.53;4930206;29;5351;-93
2022/05/01 00:29:11;;;;;;;;;;;;;;;10.42;55.37;101370.72;4933089;29;1786;-92
2022/05/01 00:31:37;;;;;;;;;;;;;;;10.41;55.29;101375.28;4927506;28;2201;-93
2022/05/01 00:36:47;;;;;;;;;;;;;;;10.39;55.17;101371.94;4921184;28;5403;-92
2022/05/01 00:39:14;;;;;;;;;;;;;;;10.39;55.14;101373.81;4938644;29;1698;-92
2022/05/01 00:41:41;;;;;;;;;;;;;;;10.38;55.15;101372.97;4947542;28;5550;-93
2022/05/01 00:44:08;;;;;;;;;;;;;;;10.37;55.21;101365.91;4957679;28;5333;-92
2022/05/01 00:46:34;;;;;;;;;;;;;;;10.37;55.30;101371.31;4929256;28;5186;-92
2022/05/01 00:49:02;;;;;;;;;;;;;;;10.36;55.31;101368.81;4931605;29;1874;-92
2022/05/01 00:51:28;;;;;;;;;;;;;;;10.35;55.16;101370.69;4934027;29;5361;-92
2022/05/01 00:53:54;;;;;;;;;;;;;;;10.36;55.17;101374.22;4929908;29;5352;-92
2022/05/01 00:56:20;;;;;;;;;;;;;;;10.34;55.10;101379.78;4946229;29;2263;-92
2022/05/01 00:58:47;;;;;;;;;;;;;;;10.34;55.33;101368.19;4936270;28;1612;-92
2022/05/01 01:01:13;;;;;;;;;;;;;;;10.32;55.17;101368.38;4926339;29;2822;-92
2022/05/01 01:03:40;;;;;;;;;;;;;;;10.31;55.32;101369.41;4941075;29;2044;-92
2022/05/01 01:06:06;;;;;;;;;;;;;;;10.31;55.34;101372.09;4933437;29;5386;-92
2022/05/01 01:08:32;;;;;;;;;;;;;;;10.30;55.26;101366.94;4938440;29;1771;-92
2022/05/01 01:10:59;;;;;;;;;;;;;;;10.30;55.14;101369.63;4939256;28;2353;-93
2022/05/01 01:13:26;;;;;;;;;;;;;;;10.29;55.31;101367.94;4943578;28;5403;-92
2022/05/01 01:15:53;;;;;;;;;;;;;;;10.27;55.12;101376.22;4941307;29;2653;-92
2022/05/01 01:18:19;;;;;;;;;;;;;;;10.28;55.26;101383.25;4943277;28;2088;-92
2022/05/01 01:20:46;;;;;;;;;;;;;;;10.27;55.06;101378.09;4958497;28;5403;-92
2022/05/01 01:23:12;;;;;;;;;;;;;;;10.26;55.31;101384.44;4933333;29;5882;-92
2022/05/01 01:25:38;;;;;;;;;;;;;;;10.26;55.06;101393.34;4954744;28;2226;-92
2022/05/01 01:28:05;;;;;;;;;;;;;;;10.24;55.10;101384.66;4935828;29;1998;-92
2022/05/01 01:33:15;;;;;;;;;;;;;;;10.22;54.98;101398.31;4955591;28;1995;-93
2022/05/01 01:35:42;;;;;;;;;;;;;;;10.22;55.09;101394.78;4937780;29;4867;-93
2022/05/01 01:38:08;;;;;;;;;;;;;;;10.21;54.99;101393.97;4937250;28;5365;-92
2022/05/01 01:40:34;;;;;;;;;;;;;;;10.22;55.15;101392.09;4940929;29;2187;-92
2022/05/01 01:43:01;;;;;;;;;;;;;;;10.21;55.04;101385.06;4941834;28;5146;-92
2022/05/01 01:45:28;;;;;;;;;;;;;;;10.19;55.04;101382.56;4938984;28;2761;-93
2022/05/01 01:47:54;;;;;;;;;;;;;;;10.17;55.14;101383.78;4940946;29;1948;-92
2022/05/01 01:50:21;;;;;;;;;;;;;;;10.17;55.01;101381.91;4939092;29;2510;-92
2022/05/01 01:52:47;;;;;;;;;;;;;;;10.17;55.07;101389.97;4955571;28;5312;-92
2022/05/01 01:55:14;;;;;;;;;;;;;;;10.16;55.00;101382.13;4945340;29;2399;-92
2022/05/01 01:57:41;;;;;;;;;;;;;;;10.14;55.01;101387.69;4949870;29;5113;-92
2022/05/01 02:00:07;;;;;;;;;;;;;;;10.15;55.02;101394.75;4947561;28;1511;-92
2022/05/01 02:02:33;;;;;;;;;;;;;;;10.14;54.89;101389.56;4936605;29;2778;-92
2022/05/01 02:05:00;;;;;;;;;;;;;;;10.14;54.96;101384.16;4947197;29;1488;-92
2022/05/01 02:07:28;;;;;;;;;;;;;;;10.13;54.87;101388.72;4948797;28;5478;-92
2022/05/01 02:09:54;;;;;;;;;;;;;;;10.12;54.97;101395.16;4940012;29;1602;-92
2022/05/01 02:12:21;;;;;;;;;;;;;;;10.12;54.89;101391.63;4941674;29;5212;-92
2022/05/01 02:14:47;;;;;;;;;;;;;;;10.11;54.97;101395.31;4959121;28;1572;-92
2022/05/01 02:17:13;;;;;;;;;;;;;;;10.11;55.03;101398.03;4938125;29;2524;-92
2022/05/01 02:19:40;;;;;;;;;;;;;;;10.09;54.90;101403.63;4931840;29;2084;-92
2022/05/01 02:22:06;;;;;;;;;;;;;;;10.10;55.01;101401.75;4933619;28;5185;-92
2022/05/01 02:24:33;;;;;;;;;;;;;;;10.08;54.94;101401.09;4951752;28;4938;-92
2022/05/01 02:27:00;;;;;;;;;;;;;;;10.08;54.82;101401.09;4941674;28;2267;-94
2022/05/01 02:29:26;;;;;;;;;;;;;;;10.07;54.99;101405.66;4957692;29;1687;-92
2022/05/01 02:31:53;;;;;;;;;;;;;;;10.05;54.94;101405.00;4937150;28;2858;-92
2022/05/01 02:34:20;;;;;;;;;;;;;;;10.06;54.89;101405.84;4952774;29;1691;-92
2022/05/01 02:36:46;;;;;;;;;;;;;;;10.05;54.82;101399.63;4935272;28;5172;-93
2022/05/01 02:39:13;;;;;;;;;;;;;;;10.04;54.80;101397.16;4938556;29;4944;-92
2022/05/01 02:41:39;;;;;;;;;;;;;;;10.04;54.79;101397.16;4937466;29;2202;-92
2022/05/01 02:44:06;;;;;;;;;;;;;;;10.04;54.91;101403.34;4937962;29;1330;-92
2022/05/01 02:46:33;;;;;;;;;;;;;;;10.03;54.91;101409.78;4950075;28;2723;-93
2022/05/01 02:48:59;;;;;;;;;;;;;;;10.01;54.89;101401.88;4942245;29;2052;-92
2022/05/01 02:51:25;;;;;;;;;;;;;;;10.00;54.81;101402.09;4933745;29;5432;-92
2022/05/01 02:53:52;;;;;;;;;;;;;;;9.99;54.89;101398.56;4942316;28;2250;-92
2022/05/01 02:56:18;;;;;;;;;;;;;;;9.99;54.72;101397.72;4939511;29;2250;-92
2022/05/01 02:58:45;;;;;;;;;;;;;;;9.99;54.74;101393.16;4934002;29;5602;-92
2022/05/01 03:01:11;;;;;;;;;;;;;;;9.98;54.89;101393.38;4933040;29;2780;-92
2022/05/01 03:03:37;;;;;;;;;;;;;;;9.97;54.77;101397.94;4935876;29;2261;-92
2022/05/01 03:06:04;;;;;;;;;;;;;;;9.96;54.84;101395.44;4923081;29;5504;-92
2022/05/01 03:08:30;;;;;;;;;;;;;;;9.96;54.71;101395.44;4941959;29;5980;-92
2022/05/01 03:10:56;;;;;;;;;;;;;;;9.94;54.71;101398.31;4940190;29;2417;-92
2022/05/01 03:13:23;;;;;;;;;;;;;;;9.94;54.79;101405.53;4946806;28;1977;-93
2022/05/01 03:15:49;;;;;;;;;;;;;;;9.93;54.58;101395.81;4946462;28;5371;-92
2022/05/01 03:23:43;;;;;;;;;;;;;;;9.89;54.68;101398.06;4935562;29;5253;-92
2022/05/01 03:26:10;;;;;;;;;;;;;;;9.88;54.77;101400.94;4952414;28;2798;-92
2022/05/01 03:28:36;;;;;;;;;;;;;;;9.88;54.88;101406.31;4940389;29;1824;-92
2022/05/01 03:31:03;;;;;;;;;;;;;;;9.87;54.73;101405.50;4933868;29;5578;-93
2022/05/01 03:33:31;;;;;;;;;;;;;;;9.87;54.68;101410.88;4934477;29;5256;-92
2022/05/01 03:35:57;;;;;;;;;;;;;;;9.86;54.67;101403.84;4964018;28;2220;-93
2022/05/01 03:38:24;;;;;;;;;;;;;;;9.84;54.52;101400.50;4941553;29;5021;-92
2022/05/01 03:40:50;;;;;;;;;;;;;;;9.84;54.72;101403.19;4938010;29;2460;-92
2022/05/01 03:43:17;;;;;;;;;;;;;;;9.84;54.66;101399.69;4938602;29;2085;-92
2022/05/01 03:45:43;;;;;;;;;;;;;;;9.82;54.86;101399.84;4934833;29;5348;-92
2022/05/01 03:48:11;;;;;;;;;;;;;;;9.82;54.65;101405.25;4931689;28;5622;-92
2022/05/01 03:50:37;;;;;;;;;;;;;;;9.82;54.73;101407.09;4938618;29;2254;-92
2022/05/01 03:53:05;;;;;;;;;;;;;;;9.80;54.62;101404.63;4938787;29;5146;-93
2022/05/01 03:55:33;;;;;;;;;;;;;;;9.78;54.58;101399.41;4930233;28;2782;-93
2022/05/01 03:58:00;;;;;;;;;;;;;;;9.80;54.76;101403.78;4939737;29;1811;-93
2022/05/01 04:00:27;;;;;;;;;;;;;;;9.78;54.51;101404.78;4938470;29;2550;-92
2022/05/01 04:02:54;;;;;;;;;;;;;;;9.77;54.63;101403.16;4937273;29;2056;-92
2022/05/01 04:05:20;;;;;;;;;;;;;;;9.77;54.38;101400.47;4937229;29;2900;-92
2022/05/01 04:07:46;;;;;;;;;;;;;;;9.76;54.57;101397.94;4928420;29;5542;-92
2022/05/01 04:10:13;;;;;;;;;;;;;;;9.76;54.55;101395.25;4936444;29;1578;-92
2022/05/01 04:12:39;;;;;;;;;;;;;;;9.75;54.50;101397.13;4930067;29;2436;-92
2022/05/01 04:15:07;;;;;;;;;;;;;;;9.73;54.67;101396.47;4948996;29;1588;-92
2022/05/01 04:17:33;;;;;;;;;;;;;;;9.73;54.62;101398.34;4937222;29;2289;-92
2022/05/01 04:20:01;;;;;;;;;;;;;;;9.73;54.71;101395.66;4940180;29;1160;-92
2022/05/01 04:22:27;;;;;;;;;;;;;;;9.71;54.48;101395.84;4930784;29;2753;-93
2022/05/01 04:24:54;;;;;;;;;;;;;;;9.71;54.58;101395.03;4924589;29;5475;-92
2022/05/01 04:27:20;;;;;;;;;;;;;;;9.70;54.54;101396.84;4946656;29;5076;-91
2022/05/01 04:29:46;;;;;;;;;;;;;;;9.69;54.66;101397.06;4924390;29;5259;-92
2022/05/01 04:32:16;;;;;;;;;;;;;;;9.68;54.47;101396.25;4937134;29;2286;-92
2022/05/01 04:34:42;;;;;;;;;;;;;;;9.67;54.58;101391.03;4942248;29;2869;-92
2022/05/01 04:37:09;;;;;;;;;;;;;;;9.67;54.54;101389.19;4923065;29;5601;-92
2022/05/01 04:39:35;;;;;;;;;;;;;;;9.66;54.37;101386.69;4938698;29;1864;-92
2022/05/01 04:42:01;;;;;;;;;;;;;;;9.66;54.60;101389.38;4936033;29;2247;-92
2022/05/01 04:44:27;;;;;;;;;;;;;;;9.65;54.49;101391.25;4937992;29;5206;-92
2022/05/01 04:46:54;;;;;;;;;;;;;;;9.63;54.54;101395.97;4933587;29;2740;-92
2022/05/01 04:49:20;;;;;;;;;;;;;;;9.63;54.48;101395.97;4932128;29;2080;-92
2022/05/01 04:51:47;;;;;;;;;;;;;;;9.62;54.52;101396.16;4934048;29;5163;-92
2022/05/01 04:54:13;;;;;;;;;;;;;;;9.61;54.43;101398.00;4938126;29;5039;-92
2022/05/01 04:59:24;;;;;;;;;;;;;;;9.60;54.49;101401.75;4936006;29;1185;-92
2022/05/01 05:01:50;;;;;;;;;;;;;;;9.61;54.37;101406.09;4936871;28;5419;-92
2022/05/01 05:04:16;;;;;;;;;;;;;;;9.59;54.40;101405.47;4925484;29;5432;-92
2022/05/01 05:06:43;;;;;;;;;;;;;;;9.59;54.58;101404.59;4927970;29;5202;-92
2022/05/01 05:11:53;;;;;;;;;;;;;;;9.58;54.54;101411.84;4948897;28;2880;-92
2022/05/01 05:14:19;;;;;;;;;;;;;;;9.57;54.33;101410.19;4935591;29;2000;-92
2022/05/01 05:16:46;;;;;;;;;;;;;;;9.57;54.30;101414.75;4923643;29;5318;-92
2022/05/01 05:19:12;;;;;;;;;;;;;;;9.55;54.52;101410.38;4926894;29;5139;-92
2022/05/01 05:21:38;;;;;;;;;;;;;;;9.55;54.35;101413.06;4935989;29;5189;-92
2022/05/01 05:24:05;;;;;;;;;;;;;;;9.55;54.49;101413.06;4939504;29;2199;-92
2022/05/01 05:26:31;;;;;;;;;;;;;;;9.55;54.44;101409.53;4926323;29;2789;-92
2022/05/01 05:28:58;;;;;;;;;;;;;;;9.54;54.37;101413.28;4938372;29;2005;-92
2022/05/01 05:31:24;;;;;;;;;;;;;;;9.53;54.47;101407.06;4932622;28;5251;-92
2022/05/01 05:33:51;;;;;;;;;;;;;;;9.52;54.35;101410.75;4934040;29;4918;-92
2022/05/01 05:36:17;;;;;;;;;;;;;;;9.53;54.74;101408.94;4934815;29;2248;-92
2022/05/01 05:38:44;;;;;;;;;;;;;;;9.53;54.40;101414.31;4937691;29;5438;-92
2022/05/01 05:41:10;;;;;;;;;;;;;;;9.53;54.28;101414.31;4933892;29;2785;-92
2022/05/01 05:43:36;;;;;;;;;;;;;;;9.52;54.14;101418.81;4952628;29;1778;-91
2022/05/01 05:46:03;;;;;;;;;;;;;;;9.53;54.17;101422.38;4931440;29;5455;-93
2022/05/01 05:48:29;;;;;;;;;;;;;;;9.52;54.15;101424.22;4933414;29;4933;-92
2022/05/01 05:50:55;;;;;;;;;;;;;;;9.48;54.29;101412.19;4938315;29;2234;-92
2022/05/01 05:53:22;;;;;;;;;;;;;;;9.50;54.30;101418.22;4934804;29;2130;-92
2022/05/01 05:55:49;;;;;;;;;;;;;;;9.52;54.29;101426.06;4950919;28;2934;-92
2022/05/01 05:58:15;;;;;;;;;;;;;;;9.53;54.23;101425.06;4932455;29;2053;-92
2022/05/01 06:00:42;;;;;;;;;;;;;;;9.52;54.03;101424.22;4940376;29;2416;-92
2022/05/01 06:03:08;;;;;;;;;;;;;;;9.51;54.19;101427.94;4941278;29;2013;-92
2022/05/01 06:05:34;;;;;;;;;;;;;;;9.50;54.28;101426.28;4938544;29;5564;-92
2022/05/01 06:08:01;;;;;;;;;;;;;;;9.51;54.23;101425.25;4935446;29;5739;-92
2022/05/01 06:10:27;;;;;;;;;;;;;;;9.52;54.09;101431.44;4933026;29;4443;-92
2022/05/01 06:12:53;;;;;;;;;;;;;;;9.50;54.05;101431.66;4929909;29;5070;-92
2022/05/01 06:15:20;;;;;;;;;;;;;;;9.50;54.10;101434.34;4940078;29;2163;-92
2022/05/01 06:17:46;;;;;;;;;;;;;;;9.47;54.12;101428.50;4957708;29;2868;-92
2022/05/01 06:20:12;;;;;;;;;;;;;;;9.52;53.95;101426.06;4942483;29;2500;-92
2022/05/01 06:22:38;;;;;;;;;;;;;;;9.52;53.95;101434.13;4933506;29;5371;-92
2022/05/01 06:25:05;;;;;;;;;;;;;;;9.51;54.13;101436.00;4935935;29;3411;-92
2022/05/01 06:27:31;;;;;;;;;;;;;;;9.51;53.92;101432.47;4929370;29;5381;-92
2022/05/01 06:29:58;;;;;;;;;;;;;;;9.48;54.11;101431.00;4939987;29;1715;-92
2022/05/01 06:32:24;;;;;;;;;;;;;;;9.50;54.18;101438.84;4945971;28;5286;-92
2022/05/01 06:34:50;;;;;;;;;;;;;;;9.49;53.78;101438.03;4939693;29;2895;-92
2022/05/01 06:37:17;;;;;;;;;;;;;;;9.49;53.94;101435.34;4940532;29;2761;-93
2022/05/01 06:39:43;;;;;;;;;;;;;;;9.48;53.89;101438.25;4946659;29;1419;-93
2022/05/01 06:42:09;;;;;;;;;;;;;;;9.49;53.94;101439.91;4948961;28;5331;-93
2022/05/01 06:44:36;;;;;;;;;;;;;;;9.49;54.01;101443.41;4957381;28;5067;-93
2022/05/01 06:47:02;;;;;;;;;;;;;;;9.48;53.90;101440.94;4937010;29;5225;-93
2022/05/01 06:49:28;;;;;;;;;;;;;;;9.49;53.99;101442.59;4943467;28;1931;-93
2022/05/01 06:51:55;;;;;;;;;;;;;;;9.50;53.98;101436.16;4932993;29;5434;-93
2022/05/01 06:54:22;;;;;;;;;;;;;;;9.49;54.09;101429.13;4935094;29;3075;-93
2022/05/01 06:56:48;;;;;;;;;;;;;;;9.50;53.96;101438.84;4942585;28;5526;-93
2022/05/01 06:59:15;;;;;;;;;;;;;;;9.49;54.05;101440.72;4937026;29;2065;-93
2022/05/01 07:01:41;;;;;;;;;;;;;;;9.51;53.64;101435.16;4942588;29;5409;-93
2022/05/01 07:04:08;;;;;;;;;;;;;;;9.49;53.73;101437.22;4933157;29;5313;-93
2022/05/01 07:06:34;;;;;;;;;;;;;;;9.50;53.71;101433.47;4940355;28;4202;-94
2022/05/01 07:09:01;;;;;;;;;;;;;;;9.49;54.07;101443.41;4956024;28;2967;-94
2022/05/01 07:11:27;;;;;;;;;;;;;;;9.49;54.02;101443.41;4928572;29;5530;-94
2022/05/01 07:13:53;;;;;;;;;;;;;;;9.50;54.01;101439.72;4944509;29;1995;-93
2022/05/01 07:16:22;;;;;;;;;;;;;;;9.48;53.80;101441.75;4931355;29;5496;-94
2022/05/01 07:18:48;;;;;;;;;;;;;;;9.49;53.84;101451.47;4948296;29;5178;-93
2022/05/01 07:21:14;;;;;;;;;;;;;;;9.49;53.83;101448.78;4936512;29;2338;-93
2022/05/01 07:23:41;;;;;;;;;;;;;;;9.49;53.91;101447.97;4928229;29;5457;-93
2022/05/01 07:26:07;;;;;;;;;;;;;;;9.50;53.68;101446.94;4930101;29;5500;-93
2022/05/01 07:28:34;;;;;;;;;;;;;;;9.50;53.83;101442.41;4925943;29;3226;-93
2022/05/01 07:31:02;;;;;;;;;;;;;;;9.48;53.77;101440.94;4936632;29;5505;-93
2022/05/01 07:33:28;;;;;;;;;;;;;;;9.49;54.09;101446.09;4937946;29;5820;-92
2022/05/01 07:35:55;;;;;;;;;;;;;;;9.50;53.90;101444.25;4938545;29;2250;-93
2022/05/01 07:38:21;;;;;;;;;;;;;;;9.49;53.90;101445.28;4945293;29;5086;-93
2022/05/01 07:40:47;;;;;;;;;;;;;;;9.48;53.90;101444.44;4933384;29;5522;-92
2022/05/01 07:43:14;;;;;;;;;;;;;;;9.50;53.68;101438.84;4939341;29;5426;-93
2022/05/01 07:45:40;;;;;;;;;;;;;;;9.49;53.81;101438.03;4938087;29;2159;-93
2022/05/01 07:48:06;;;;;;;;;;;;;;;9.49;53.72;101438.03;4940721;29;1708;-93
2022/05/01 07:50:33;;;;;;;;;;;;;;;9.49;53.81;101440.72;4939154;28;2748;-93
2022/05/01 07:52:59;;;;;;;;;;;;;;;9.49;53.84;101443.41;4940417;29;1973;-93
2022/05/01 07:55:25;;;;;;;;;;;;;;;9.50;54.06;101441.56;4932294;29;5595;-93
2022/05/01 07:57:52;;;;;;;;;;;;;;;9.53;53.72;101433.97;4939649;29;2674;-93
2022/05/01 08:00:18;;;;;;;;;;;;;;;9.52;53.72;101450.28;4935785;29;5259;-92
2022/05/01 08:05:29;;;;;;;;;;;;;;;9.52;53.81;101448.41;4948018;28;3603;-93
2022/05/01 08:07:55;;;;;;;;;;;;;;;9.53;53.65;101447.41;4932862;29;5667;-93
2022/05/01 08:10:22;;;;;;;;;;;;;;;9.53;53.65;101447.41;4933726;29;2115;-93
2022/05/01 08:12:49;;;;;;;;;;;;;;;9.54;53.67;101442.84;4934230;29;2690;-93
2022/05/01 08:15:17;;;;;;;;;;;;;;;9.54;53.63;101457.13;4938636;28;2899;-93
2022/05/01 08:17:43;;;;;;;;;;;;;;;9.55;53.92;101450.72;4945621;29;5433;-92
2022/05/01 08:22:53;;;;;;;;;;;;;;;9.57;53.85;101455.09;4928608;29;5112;-93
2022/05/01 08:25:20;;;;;;;;;;;;;;;9.57;53.69;101449.72;4933102;28;2380;-92
2022/05/01 08:27:46;;;;;;;;;;;;;;;9.57;53.62;101450.53;4929958;29;2816;-93
2022/05/01 08:30:13;;;;;;;;;;;;;;;9.57;53.81;101444.34;4938858;29;1964;-92
2022/05/01 08:32:39;;;;;;;;;;;;;;;9.59;53.75;101440.44;4945873;28;5565;-93
2022/05/01 08:35:05;;;;;;;;;;;;;;;9.59;53.66;101442.25;4938153;29;2054;-92
2022/05/01 08:37:32;;;;;;;;;;;;;;;9.58;53.77;101436.06;4938329;29;5091;-93
2022/05/01 08:39:58;;;;;;;;;;;;;;;9.59;53.72;101439.56;4938135;29;1465;-93
2022/05/01 08:42:25;;;;;;;;;;;;;;;9.59;53.66;101437.75;4951032;28;2718;-93
2022/05/01 08:44:51;;;;;;;;;;;;;;;9.60;53.65;101433.19;4938070;29;1778;-92
2022/05/01 08:47:18;;;;;;;;;;;;;;;9.60;53.75;101433.19;4932735;29;5498;-92
2022/05/01 08:49:44;;;;;;;;;;;;;;;9.60;53.78;101434.03;4931848;29;2321;-93
2022/05/01 08:52:10;;;;;;;;;;;;;;;9.61;53.59;101434.84;4936144;29;4028;-93
2022/05/01 08:54:37;;;;;;;;;;;;;;;9.60;53.82;101434.03;4940748;29;2254;-93
2022/05/01 08:57:03;;;;;;;;;;;;;;;9.61;53.73;101424.91;4928268;29;5489;-93
2022/05/01 08:59:29;;;;;;;;;;;;;;;9.61;53.56;101426.78;4931156;29;5315;-93
2022/05/01 09:01:56;;;;;;;;;;;;;;;9.61;53.72;101419.53;4934578;29;2419;-93
2022/05/01 09:04:23;;;;;;;;;;;;;;;9.64;53.81;101421.00;4938066;29;5374;-93
2022/05/01 09:06:49;;;;;;;;;;;;;;;9.64;53.75;101427.22;4927895;29;5374;-93
2022/05/01 09:09:15;;;;;;;;;;;;;;;9.65;53.55;101422.69;4938363;29;5147;-92
2022/05/01 09:14:26;;;;;;;;;;;;;;;9.65;53.53;101418.16;4942471;29;5020;-92
2022/05/01 09:16:52;;;;;;;;;;;;;;;9.65;53.82;101418.16;4932454;29;2236;-92
2022/05/01 09:19:19;;;;;;;;;;;;;;;9.66;53.91;101419.81;4939043;29;1364;-92
2022/05/01 09:21:45;;;;;;;;;;;;;;;9.65;53.66;101418.16;4935046;29;2449;-93
2022/05/01 09:24:11;;;;;;;;;;;;;;;9.66;53.70;101421.66;4928111;29;5508;-92
2022/05/01 09:26:38;;;;;;;;;;;;;;;9.67;53.69;101416.06;4935871;28;5557;-93
2022/05/01 09:29:04;;;;;;;;;;;;;;;9.69;53.71;101405.97;4941652;29;1550;-92
2022/05/01 09:31:32;;;;;;;;;;;;;;;9.68;53.88;101411.56;4939430;29;2305;-91
2022/05/01 09:33:59;;;;;;;;;;;;;;;9.67;53.68;101402.63;4929618;29;2896;-92
2022/05/01 09:36:25;;;;;;;;;;;;;;;9.68;53.67;101404.31;4941501;29;2224;-91
2022/05/01 09:38:51;;;;;;;;;;;;;;;9.69;53.81;101402.44;4933330;29;1254;-92
2022/05/01 09:41:18;;;;;;;;;;;;;;;9.69;53.75;101395.19;4931532;29;5379;-91
2022/05/01 09:43:44;;;;;;;;;;;;;;;9.70;53.92;101402.22;4943596;28;1930;-91
2022/05/01 09:46:10;;;;;;;;;;;;;;;9.69;53.74;101400.59;4954025;28;5472;-92
2022/05/01 09:48:37;;;;;;;;;;;;;;;9.71;53.78;101408.47;4951385;28;5266;-91
2022/05/01 09:51:03;;;;;;;;;;;;;;;9.72;53.84;101399.38;4948951;29;2177;-91
2022/05/01 09:53:29;;;;;;;;;;;;;;;9.71;53.71;101395.84;4959677;28;5099;-91
2022/05/01 09:55:56;;;;;;;;;;;;;;;9.72;53.76;101394.81;4931576;29;5388;-92
2022/05/01 09:58:23;;;;;;;;;;;;;;;9.74;54.04;101402.72;4941646;28;1679;-92
2022/05/01 10:00:49;;;;;;;;;;;;;;;9.75;53.98;101391.75;4942157;29;2345;-91
2022/05/01 10:03:15;;;;;;;;;;;;;;;9.76;53.84;101395.25;4937087;29;1970;-91
2022/05/01 10:05:42;;;;;;;;;;;;;;;9.76;54.06;101396.09;4936558;29;4965;-90
2022/05/01 10:08:08;;;;;;;;;;;;;;;9.77;53.88;101395.06;4934722;29;5730;-93
2022/05/01 10:10:34;;;;;;;;;;;;;;;9.76;54.00;101389.88;4939892;29;2836;-94
2022/05/01 10:13:01;;;;;;;;;;;;;;;9.76;54.11;101389.88;4934068;28;1970;-94
2022/05/01 10:15:27;;;;;;;;;;;;;;;9.78;53.96;101380.59;4955127;28;4650;-94
2022/05/01 10:17:54;;;;;;;;;;;;;;;9.78;54.07;101390.53;4938510;29;5392;-94
2022/05/01 10:20:20;;;;;;;;;;;;;;;9.80;53.81;101383.09;4941913;29;2147;-94
2022/05/01 10:22:46;;;;;;;;;;;;;;;9.80;54.05;101380.41;4943261;29;2682;-91
2022/05/01 10:25:12;;;;;;;;;;;;;;;9.82;53.76;101378.34;4924686;28;5476;-93
2022/05/01 10:27:39;;;;;;;;;;;;;;;9.82;54.05;101372.94;4935730;29;5484;-93
2022/05/01 10:32:50;;;;;;;;;;;;;;;9.84;53.97;101370.91;4930390;29;5478;-93
2022/05/01 10:35:16;;;;;;;;;;;;;;;9.84;54.06;101370.91;4957189;28;2294;-93
2022/05/01 10:37:42;;;;;;;;;;;;;;;9.85;54.21;101377.94;4934020;29;5566;-93
2022/05/01 10:40:09;;;;;;;;;;;;;;;9.87;54.10;101373.22;4938884;29;5814;-93
2022/05/01 10:42:36;;;;;;;;;;;;;;;9.88;53.97;101369.50;4940299;29;5329;-92
2022/05/01 10:45:02;;;;;;;;;;;;;;;9.91;54.05;101368.25;4930162;29;1627;-93
2022/05/01 10:47:29;;;;;;;;;;;;;;;9.91;54.15;101366.44;4936445;28;2833;-92
2022/05/01 10:49:55;;;;;;;;;;;;;;;9.92;54.31;101362.69;4940609;29;1858;-92
2022/05/01 10:52:21;;;;;;;;;;;;;;;9.93;54.10;101366.22;4932900;29;5444;-93
2022/05/01 10:54:47;;;;;;;;;;;;;;;9.94;54.18;101363.34;4953164;28;2215;-93
2022/05/01 10:57:14;;;;;;;;;;;;;;;9.95;54.30;101362.31;4936618;29;2204;-92
2022/05/01 10:59:43;;;;;;;;;;;;;;;9.97;54.14;101356.72;4932056;29;1199;-92
2022/05/01 11:02:09;;;;;;;;;;;;;;;9.98;54.18;101358.41;4938290;29;2967;-95
2022/05/01 11:04:36;;;;;;;;;;;;;;;9.99;54.44;101360.88;4930163;29;2081;-93
2022/05/01 11:07:03;;;;;;;;;;;;;;;9.99;54.36;101355.50;4922686;29;5578;-93
2022/05/01 11:09:30;;;;;;;;;;;;;;;9.99;54.46;101355.50;4939419;29;5551;-94
2022/05/01 11:11:57;;;;;;;;;;;;;;;10.00;54.30;101359.88;4950380;28;2533;-93
2022/05/01 11:14:23;;;;;;;;;;;;;;;10.02;54.52;101355.09;4935100;29;1927;-94
2022/05/01 11:16:49;;;;;;;;;;;;;;;10.02;54.64;101352.41;4934951;29;2741;-94
2022/05/01 11:19:16;;;;;;;;;;;;;;;10.05;54.47;101353.88;4958261;29;2027;-94
2022/05/01 11:21:43;;;;;;;;;;;;;;;10.06;54.55;101352.00;4940574;29;5437;-94
2022/05/01 11:24:13;;;;;;;;;;;;;;;10.07;54.59;101348.31;4936537;29;5174;-94
2022/05/01 11:26:39;;;;;;;;;;;;;;;10.07;54.49;101343.75;4937014;29;5139;-94
2022/05/01 11:29:06;;;;;;;;;;;;;;;10.07;54.51;101343.75;4951472;28;1513;-94
2022/05/01 11:31:32;;;;;;;;;;;;;;;10.09;54.53;101349.78;4931126;29;2901;-93
2022/05/01 11:33:59;;;;;;;;;;;;;;;10.10;54.49;101334.47;4925961;29;2066;-93
2022/05/01 11:36:25;;;;;;;;;;;;;;;10.11;54.50;101333.41;4948017;28;5510;-94
2022/05/01 11:38:53;;;;;;;;;;;;;;;10.12;54.45;101335.09;4940379;29;5366;-94
2022/05/01 11:41:20;;;;;;;;;;;;;;;10.13;54.61;101334.06;4938834;29;2390;-94
2022/05/01 11:43:46;;;;;;;;;;;;;;;10.13;54.45;101334.06;4931572;29;5561;-94
2022/05/01 11:46:13;;;;;;;;;;;;;;;10.13;54.52;101324.13;4932374;29;2785;-94
2022/05/01 11:48:39;;;;;;;;;;;;;;;10.15;54.68;101332.84;4926138;29;1676;-94
2022/05/01 11:51:05;;;;;;;;;;;;;;;10.16;54.58;101323.72;4924978;29;5210;-93
2022/05/01 11:53:32;;;;;;;;;;;;;;;10.16;54.73;101325.59;4936535;29;4977;-94
2022/05/01 12:04:10;;;;;;;;;;;;;;;10.22;54.53;101325.63;4944453;29;2076;-90
2022/05/01 12:06:37;;;;;;;;;;;;;;;10.22;54.65;101309.47;4938769;29;2273;-91
2022/05/01 12:09:03;;;;;;;;;;;;;;;10.23;54.74;101316.53;4941157;29;1297;-91
2022/05/01 12:11:29;;;;;;;;;;;;;;;10.22;54.67;101314.84;4928221;29;5403;-90
2022/05/01 12:13:56;;;;;;;;;;;;;;;10.25;54.76;101310.94;4947500;28;5327;-91
2022/05/01 12:16:22;;;;;;;;;;;;;;;10.28;54.73;101312.44;4935194;29;4290;-91
2022/05/01 12:18:48;;;;;;;;;;;;;;;10.29;54.80;101311.38;4954468;29;1600;-91
2022/05/01 12:21:15;;;;;;;;;;;;;;;10.30;54.64;101310.38;4914815;28;5552;-91
2022/05/01 12:23:41;;;;;;;;;;;;;;;10.31;54.78;101306.66;4940187;28;2111;-91
2022/05/01 12:26:07;;;;;;;;;;;;;;;10.32;54.72;101311.00;4941107;28;2322;-92
2022/05/01 12:28:34;;;;;;;;;;;;;;;10.33;54.82;101308.13;4949854;28;1635;-91
2022/05/01 12:31:00;;;;;;;;;;;;;;;10.34;54.89;101311.63;4931977;29;5465;-91
2022/05/01 12:33:26;;;;;;;;;;;;;;;10.34;54.97;101301.69;4938984;28;2883;-91
2022/05/01 12:35:53;;;;;;;;;;;;;;;10.35;54.88;101295.28;4946565;28;2613;-91
2022/05/01 12:38:20;;;;;;;;;;;;;;;10.37;54.84;101301.28;4923552;28;3722;-91
2022/05/01 12:46:15;;;;;;;;;;;;;;;10.40;55.06;101291.97;4940958;28;5285;-91
2022/05/01 12:48:41;;;;;;;;;;;;;;;10.40;54.89;101282.03;4940030;28;2849;-91
2022/05/01 12:51:08;;;;;;;;;;;;;;;10.43;54.97;101278.94;4936482;28;5270;-91
2022/05/01 12:53:36;;;;;;;;;;;;;;;10.44;54.97;101283.31;4961574;28;2220;-91
2022/05/01 12:56:02;;;;;;;;;;;;;;;10.45;54.97;101276.06;4956234;28;2704;-92
2022/05/01 12:58:29;;;;;;;;;;;;;;;10.47;54.78;101279.41;4962377;28;5494;-91
2022/05/01 13:00:55;;;;;;;;;;;;;;;10.48;54.91;101272.97;4948634;28;5362;-91
2022/05/01 13:03:21;;;;;;;;;;;;;;;10.48;55.03;101267.56;4925229;28;5505;-91
2022/05/01 13:05:47;;;;;;;;;;;;;;;10.50;54.87;101272.75;4954511;28;2319;-90
2022/05/01 13:08:14;;;;;;;;;;;;;;;10.51;54.99;101271.72;4943356;28;5391;-91
2022/05/01 13:10:40;;;;;;;;;;;;;;;10.52;55.16;101276.09;4929160;29;5504;-90
2022/05/01 13:13:06;;;;;;;;;;;;;;;10.54;55.05;101268.63;4950007;28;5322;-92
2022/05/01 13:15:33;;;;;;;;;;;;;;;10.55;54.91;101264.91;4942998;28;2397;-92
2022/05/01 13:17:59;;;;;;;;;;;;;;;10.57;55.05;101268.22;4958020;28;5031;-91
2022/05/01 13:20:25;;;;;;;;;;;;;;;10.57;55.13;101260.97;4935601;28;5399;-91
2022/05/01 13:22:52;;;;;;;;;;;;;;;10.58;55.09;101259.94;4952489;28;6132;-92
2022/05/01 13:25:18;;;;;;;;;;;;;;;10.59;55.06;101261.63;4948618;28;2363;-92
2022/05/01 13:27:45;;;;;;;;;;;;;;;10.62;54.99;101257.69;4940138;28;5013;-91
2022/05/01 13:30:11;;;;;;;;;;;;;;;10.63;55.07;101256.66;4962552;28;2476;-92